<?xml version="1.0" encoding="UTF-8" standalone="no" ?>
<gpx xmlns="http://www.topografix.com/GPX/1/1" xmlns:xsi="http://www.w3.org/2001/XMLSchema-instance" xsi:schemaLocation="http://www.topografix.com/GPX/1/1 http://www.topografix.com/GPX/1/1/gpx.xsd" version="1.1" creator="VisuGPX - https://www.visugpx.com">
  <metadata>
    <name>boucles beaumont</name>
    <desc><![CDATA[boucles beaumont du périgord]]></desc>
  </metadata>
  <trk>
    <name><![CDATA[BBmt42]]></name>
    <trkseg>
      <trkpt lat="44.7595" lon="0.78178">
        <ele>163</ele>
        <time>2009-01-15T12:46:59Z</time>
      </trkpt>
      <trkpt lat="44.75958" lon="0.78205">
        <ele>160</ele>
        <time>2009-01-15T12:47:07Z</time>
      </trkpt>
      <trkpt lat="44.75963" lon="0.7823">
        <ele>159</ele>
        <time>2009-01-15T12:47:10Z</time>
      </trkpt>
      <trkpt lat="44.75968" lon="0.78258">
        <ele>158</ele>
        <time>2009-01-15T12:47:13Z</time>
      </trkpt>
      <trkpt lat="44.75973" lon="0.78285">
        <ele>157</ele>
        <time>2009-01-15T12:47:16Z</time>
      </trkpt>
      <trkpt lat="44.75978" lon="0.7831">
        <ele>156</ele>
        <time>2009-01-15T12:47:19Z</time>
      </trkpt>
      <trkpt lat="44.75985" lon="0.78338">
        <ele>158</ele>
        <time>2009-01-15T12:47:23Z</time>
      </trkpt>
      <trkpt lat="44.75993" lon="0.78363">
        <ele>157</ele>
        <time>2009-01-15T12:47:34Z</time>
      </trkpt>
      <trkpt lat="44.76003" lon="0.78388">
        <ele>154</ele>
        <time>2009-01-15T12:47:37Z</time>
      </trkpt>
      <trkpt lat="44.76013" lon="0.78415">
        <ele>151</ele>
        <time>2009-01-15T12:47:40Z</time>
      </trkpt>
      <trkpt lat="44.7602" lon="0.78445">
        <ele>149</ele>
        <time>2009-01-15T12:47:43Z</time>
      </trkpt>
      <trkpt lat="44.76028" lon="0.78473">
        <ele>147</ele>
        <time>2009-01-15T12:47:46Z</time>
      </trkpt>
      <trkpt lat="44.7604" lon="0.78498">
        <ele>147</ele>
        <time>2009-01-15T12:47:49Z</time>
      </trkpt>
      <trkpt lat="44.7605" lon="0.78523">
        <ele>146</ele>
        <time>2009-01-15T12:47:52Z</time>
      </trkpt>
      <trkpt lat="44.76055" lon="0.78553">
        <ele>145</ele>
        <time>2009-01-15T12:47:55Z</time>
      </trkpt>
      <trkpt lat="44.76058" lon="0.78583">
        <ele>144</ele>
        <time>2009-01-15T12:47:58Z</time>
      </trkpt>
      <trkpt lat="44.76058" lon="0.7861">
        <ele>143</ele>
        <time>2009-01-15T12:48:01Z</time>
      </trkpt>
      <trkpt lat="44.76063" lon="0.78638">
        <ele>143</ele>
        <time>2009-01-15T12:48:04Z</time>
      </trkpt>
      <trkpt lat="44.76073" lon="0.78663">
        <ele>143</ele>
        <time>2009-01-15T12:48:07Z</time>
      </trkpt>
      <trkpt lat="44.76088" lon="0.7869">
        <ele>143</ele>
        <time>2009-01-15T12:48:10Z</time>
      </trkpt>
      <trkpt lat="44.76098" lon="0.78713">
        <ele>144</ele>
        <time>2009-01-15T12:48:13Z</time>
      </trkpt>
      <trkpt lat="44.76103" lon="0.78738">
        <ele>138</ele>
        <time>2009-01-15T12:49:04Z</time>
      </trkpt>
      <trkpt lat="44.76108" lon="0.78763">
        <ele>135</ele>
        <time>2009-01-15T12:49:09Z</time>
      </trkpt>
      <trkpt lat="44.76113" lon="0.78793">
        <ele>135</ele>
        <time>2009-01-15T12:49:14Z</time>
      </trkpt>
      <trkpt lat="44.76118" lon="0.78818">
        <ele>138</ele>
        <time>2009-01-15T12:49:29Z</time>
      </trkpt>
      <trkpt lat="44.76128" lon="0.78843">
        <ele>138</ele>
        <time>2009-01-15T12:49:36Z</time>
      </trkpt>
      <trkpt lat="44.7614" lon="0.78865">
        <ele>138</ele>
        <time>2009-01-15T12:49:42Z</time>
      </trkpt>
      <trkpt lat="44.76155" lon="0.78885">
        <ele>138</ele>
        <time>2009-01-15T12:49:47Z</time>
      </trkpt>
      <trkpt lat="44.7617" lon="0.78908">
        <ele>137</ele>
        <time>2009-01-15T12:49:53Z</time>
      </trkpt>
      <trkpt lat="44.76183" lon="0.7893">
        <ele>137</ele>
        <time>2009-01-15T12:50:01Z</time>
      </trkpt>
      <trkpt lat="44.76193" lon="0.78953">
        <ele>136</ele>
        <time>2009-01-15T12:50:07Z</time>
      </trkpt>
      <trkpt lat="44.76205" lon="0.78973">
        <ele>132</ele>
        <time>2009-01-15T12:50:12Z</time>
      </trkpt>
      <trkpt lat="44.7622" lon="0.7899">
        <ele>128</ele>
        <time>2009-01-15T12:50:18Z</time>
      </trkpt>
      <trkpt lat="44.76235" lon="0.7901">
        <ele>128</ele>
        <time>2009-01-15T12:50:25Z</time>
      </trkpt>
      <trkpt lat="44.7625" lon="0.79025">
        <ele>127</ele>
        <time>2009-01-15T12:50:30Z</time>
      </trkpt>
      <trkpt lat="44.76263" lon="0.79045">
        <ele>125</ele>
        <time>2009-01-15T12:50:35Z</time>
      </trkpt>
      <trkpt lat="44.76273" lon="0.79068">
        <ele>125</ele>
        <time>2009-01-15T12:50:41Z</time>
      </trkpt>
      <trkpt lat="44.7628" lon="0.79093">
        <ele>126</ele>
        <time>2009-01-15T12:50:49Z</time>
      </trkpt>
      <trkpt lat="44.76293" lon="0.79113">
        <ele>125</ele>
        <time>2009-01-15T12:51:05Z</time>
      </trkpt>
      <trkpt lat="44.76303" lon="0.79138">
        <ele>127</ele>
        <time>2009-01-15T12:51:15Z</time>
      </trkpt>
      <trkpt lat="44.76313" lon="0.79163">
        <ele>125</ele>
        <time>2009-01-15T12:51:23Z</time>
      </trkpt>
      <trkpt lat="44.76323" lon="0.79185">
        <ele>122</ele>
        <time>2009-01-15T12:51:30Z</time>
      </trkpt>
      <trkpt lat="44.7633" lon="0.7921">
        <ele>117</ele>
        <time>2009-01-15T12:51:37Z</time>
      </trkpt>
      <trkpt lat="44.76343" lon="0.79233">
        <ele>106</ele>
        <time>2009-01-15T12:51:42Z</time>
      </trkpt>
      <trkpt lat="44.76355" lon="0.79253">
        <ele>99</ele>
        <time>2009-01-15T12:51:50Z</time>
      </trkpt>
      <trkpt lat="44.7637" lon="0.79273">
        <ele>108</ele>
        <time>2009-01-15T12:51:59Z</time>
      </trkpt>
      <trkpt lat="44.76388" lon="0.7928">
        <ele>112</ele>
        <time>2009-01-15T12:52:04Z</time>
      </trkpt>
      <trkpt lat="44.76405" lon="0.79293">
        <ele>122</ele>
        <time>2009-01-15T12:52:11Z</time>
      </trkpt>
      <trkpt lat="44.76423" lon="0.793">
        <ele>124</ele>
        <time>2009-01-15T12:52:19Z</time>
      </trkpt>
      <trkpt lat="44.76443" lon="0.79308">
        <ele>119</ele>
        <time>2009-01-15T12:52:27Z</time>
      </trkpt>
      <trkpt lat="44.76463" lon="0.79313">
        <ele>121</ele>
        <time>2009-01-15T12:52:34Z</time>
      </trkpt>
      <trkpt lat="44.76483" lon="0.7931">
        <ele>129</ele>
        <time>2009-01-15T12:52:41Z</time>
      </trkpt>
      <trkpt lat="44.76503" lon="0.7931">
        <ele>129</ele>
        <time>2009-01-15T12:52:47Z</time>
      </trkpt>
      <trkpt lat="44.76523" lon="0.79305">
        <ele>125</ele>
        <time>2009-01-15T12:52:54Z</time>
      </trkpt>
      <trkpt lat="44.76543" lon="0.7931">
        <ele>122</ele>
        <time>2009-01-15T12:52:59Z</time>
      </trkpt>
      <trkpt lat="44.76563" lon="0.79308">
        <ele>122</ele>
        <time>2009-01-15T12:53:07Z</time>
      </trkpt>
      <trkpt lat="44.76585" lon="0.79308">
        <ele>116</ele>
        <time>2009-01-15T12:53:13Z</time>
      </trkpt>
      <trkpt lat="44.76605" lon="0.7931">
        <ele>111</ele>
        <time>2009-01-15T12:53:19Z</time>
      </trkpt>
      <trkpt lat="44.76623" lon="0.79318">
        <ele>101</ele>
        <time>2009-01-15T12:53:23Z</time>
      </trkpt>
      <trkpt lat="44.7664" lon="0.79325">
        <ele>100</ele>
        <time>2009-01-15T12:53:27Z</time>
      </trkpt>
      <trkpt lat="44.7666" lon="0.79335">
        <ele>98</ele>
        <time>2009-01-15T12:53:33Z</time>
      </trkpt>
      <trkpt lat="44.76678" lon="0.79348">
        <ele>91</ele>
        <time>2009-01-15T12:53:38Z</time>
      </trkpt>
      <trkpt lat="44.76695" lon="0.79355">
        <ele>82</ele>
        <time>2009-01-15T12:53:46Z</time>
      </trkpt>
    </trkseg>
  </trk>
</gpx>